默认 日期 大小 文件数 浏览量 最新下载 xml
exposure磁力链接相关资源由用户搜索指令自动获取,结果来源于网络,本站不存储任何资料,亦不承担任何责任,请于24小时内删除,搜索到5408个磁力,显示前4000条数据,用时4ms。
    {"setup.exe": 239296120, "readme.txt": 725, "alien.skin.plugins.x86-x64-patch.exe": 326656}
创建时间: 2018-11-05 20:25:23 大小:228.52 MB 文件数量:3 热度:15 最近下载:2025-08-01 16:18:17
    {"Cover.jpg": 72671, "05 - A.W..mp3": 10317303, "02 - Loose.mp3": 20925109, "04 - The Son.mp3": 20927203, "01 - Above 179.mp3": 13741444, "06 - On a Stone.mp3": 13104058, "07 - Groundhog Day.mp3": 17623248, "03 - Electric Carve.mp3": 8765650, "08 - Into ...
创建时间: 2018-11-05 20:38:16 大小:118.59 MB 文件数量:9 热度:9 最近下载:2023-04-09 05:50:04
    ... 86381, "T.H.B-Northern.Exposure-E05-North.Sweden.mp4": 1067462019 ... , "T.H.B-Northern.Exposure-E05-North.Sweden.srt": 85742 ... , "T.H.B-Northern.Exposure-E06-South.Sweden.mp4": 1067305616 ... 1061732071, "T.H.B-Northern.Exposure-E02-Lithuania-Latvia-Estonia.srt ...
创建时间: 2018-11-05 22:29:05 大小:5.95 GB 文件数量:12 热度:15 最近下载:2025-09-25 12:58:01
    ... ": 177174}, "Sadus - Chemical Exposure.cue": 1748, "Sadus - Chemical Exposure.log": 6994, "Sadus ...
创建时间: 2018-11-05 23:23:35 大小:217.66 MB 文件数量:12 热度:11 最近下载:2025-01-27 10:01:51
    {"The.Hairy.Bikers-Northern.Exposure-S01E03-Russia.mp4": 1069995312, "The.Hairy.Bikers-Northern.Exposure-S01E03-Russia.srt": 91504}
创建时间: 2018-11-05 23:57:16 大小:1020.51 MB 文件数量:2 热度:12 最近下载:2025-09-22 16:47:01
    ... Preview V2.aep": 50226618, "Double Exposure Generator V2 15540864.mp4": 18667956 ... , "Double Exposure Generator V2 Preview image.jpg ...
创建时间: 2018-11-06 00:30:51 大小:1.5 GB 文件数量:1117 热度:15 最近下载:2025-03-13 19:58:01
    {"videohive-13492043-double-exposure-kit.zip": 700514055}
创建时间: 2018-11-06 01:06:09 大小:668.06 MB 文件数量:1 热度:10 最近下载:2023-04-09 08:40:03
    {"crack": {"run_25668.exe": 168232}, "Torrent downloaded from Divxhunt.me.txt": 36, "Alien Skin Software Exposure x4 Bundle 4.0.1.127 Full With Medicine.exe": 3209876, "Alien Skin Software Exposure x4 Bundle 4.0.1.127 Full With Medicine.nfo": 636}
创建时间: 2018-11-06 01:57:44 大小:3.22 MB 文件数量:4 热度:11 最近下载:2025-08-07 16:05:01
    {"Fix": {"Crack.zip": 88875301}, "Read Me.txt": 289, "[CracksN0w.C0m].url": 148, "[FreeTutorials.Us].url": 151, "exposure-x4-4.0.2.44.exe": 88875091, "Torrent Downloaded from Glodls.to.txt": 237}
创建时间: 2018-11-06 06:17:21 大小:169.52 MB 文件数量:6 热度:11 最近下载:2025-03-23 07:02:02
    {"Fix": {"Crack.zip": 88875255}, "Read Me.txt": 289, "[CracksN0w.C0m].url": 148, "[FreeTutorials.Us].url": 151, "exposure-x4-4.0.2.44.exe": 88875045, "Torrent Downloaded from Glodls.to.txt": 237}
创建时间: 2018-11-06 08:45:02 大小:169.52 MB 文件数量:6 热度:10 最近下载:2025-09-21 08:56:02
    ... ": {"Guide all.pdf": 131147, "Double Exposure Titles.aep": 4891548, "Enchanted Discount ... Code.pdf": 1563957, "Double Exposure Titles User Guide.pdf": 408076 ... , "Double Exposure Parallax Titles – After Effects Template ...
创建时间: 2018-11-06 10:52:30 大小:26.9 MB 文件数量:7 热度:11 最近下载:2024-11-09 23:19:01
    {"Michael Freeman's Perfect Exposure.pdf": 112774457, "Torrent downloaded from Demonoid.com.txt": 47}
创建时间: 2018-11-06 12:02:18 大小:107.55 MB 文件数量:2 热度:16 最近下载:2025-02-09 13:59:06
    {"www": {"js": {"libs": {"pixi.js": 921058, "fpsmeter.js": 7586, "lz-string.js": 6703, "pixi-picture.js": 16418, "pixi-tilemap.js": 32584}, "main.js": 279, "plugins": {"ItemBook.js": 12929, "EnemyBook.js": 11958, "MadeWithMv.js": 10752, "WeaponSkill.js": ...
创建时间: 2018-11-06 14:41:31 大小:183.5 MB 文件数量:502 热度:56 最近下载:2025-08-09 00:51:02
    ... , "Visit CracksNow.com.url": 124, "exposure-x4-4.0.1.26 ...
创建时间: 2018-11-06 14:41:45 大小:422.29 MB 文件数量:10 热度:14 最近下载:2025-03-06 17:51:02
    {"d1.jpg": 469547, "Exposure (1995).avi": 1465456640, "Exposure (1995).avi.jpg": 710980}
创建时间: 2018-11-06 18:52:21 大小:1.37 GB 文件数量:3 热度:7 最近下载:2023-04-09 21:10:03
    ... GiNJi.CD1.avi": 733997056, "Love.Exposure.2008.JAP.DVDRip.XviD-GiNJi ... .CD1.srt": 66590, "Love.Exposure.2008.JAP.DVDRip.XviD-GiNJi ... .CD2.avi": 734654464, "Love.Exposure.2008.JAP.DVDRip.XviD-GiNJi ... .CD3.avi": 732758016, "Love.Exposure.2008.JAP.DVDRip.XviD-GiNJi ...
创建时间: 2018-11-06 18:53:50 大小:2.05 GB 文件数量:7 热度:5 最近下载:2023-04-09 21:20:11
    {"Alien_Skin_Exposure_X3_Bundle_90592_Setup__Crack.zip": 9464766}
创建时间: 2018-11-06 19:00:42 大小:9.03 MB 文件数量:1 热度:7 最近下载:2023-04-09 21:40:02
    {"amptqx.rar": 33903290, "Visit babupc.com.url": 117, "Downloaded from BabuPC.com.txt": 1960, "exposure-x4-bundle-4.0.1.27.exe": 386624197}
创建时间: 2018-11-06 19:01:35 大小:401.05 MB 文件数量:4 热度:9 最近下载:2025-07-14 22:51:02
    {"Patch.rar": 335331, "Visit SnowFiles.com.url": 110, "Visit CracksMind.com.url": 113, "exposure-x3-3.5.5.151.exe": 436269, "Downloaded from CracksMind.Com.txt": 2178, "Visit TutsGalaxy.com for tutorials & free courses.url": 113}
创建时间: 2018-11-06 22:48:42 大小:755.97 KB 文件数量:6 热度:10 最近下载:2025-04-22 08:35:01
    {"crack": {"run_25668.exe": 168232}, "Torrent downloaded from Divxhunt.me.txt": 36, "Alien Skin Software Exposure x4 Bundle 4.0.1.127 Full With Medicine.exe": 3209876, "Alien Skin Software Exposure x4 Bundle 4.0.1.127 Full With Medicine.nfo": 636}
创建时间: 2018-11-07 00:13:42 大小:3.22 MB 文件数量:4 热度:9 最近下载:2025-07-14 04:57:02